createdAt,value
2018-03-20T00:00:20.071Z,21.70
2018-03-20T00:02:49.092Z,21.70
2018-03-20T00:05:18.082Z,21.70
2018-03-20T00:07:47.156Z,21.60
2018-03-20T00:10:16.015Z,21.60
2018-03-20T00:12:45.146Z,21.70
2018-03-20T00:15:14.314Z,21.70
2018-03-20T00:17:43.255Z,21.60
2018-03-20T00:20:12.103Z,21.60
2018-03-20T00:22:41.167Z,21.60
2018-03-20T00:25:10.092Z,21.50
2018-03-20T00:27:39.350Z,21.50
2018-03-20T00:30:08.540Z,21.50
2018-03-20T00:32:38.089Z,21.40
2018-03-20T00:35:07.187Z,21.30
2018-03-20T00:37:36.180Z,21.40
2018-03-20T00:40:05.355Z,21.40
2018-03-20T00:42:34.392Z,21.40
2018-03-20T00:45:03.450Z,21.40
2018-03-20T00:47:33.523Z,21.30
2018-03-20T00:50:02.891Z,21.30
2018-03-20T00:52:31.964Z,21.30
2018-03-20T00:55:01.171Z,21.20
2018-03-20T00:57:30.531Z,21.10
2018-03-20T00:59:59.444Z,21.10
2018-03-20T01:02:28.383Z,21.20
2018-03-20T01:04:57.410Z,21.00
2018-03-20T01:07:26.525Z,20.90
2018-03-20T01:09:55.934Z,20.90
2018-03-20T01:12:25.146Z,20.80
2018-03-20T01:14:55.912Z,20.70
2018-03-20T01:17:25.006Z,20.70
2018-03-20T01:19:54.680Z,20.70
2018-03-20T01:22:23.651Z,20.70
2018-03-20T01:24:52.752Z,20.70
2018-03-20T01:27:21.866Z,20.70
2018-03-20T01:29:50.855Z,20.70
2018-03-20T01:32:19.836Z,20.50
2018-03-20T01:34:49.538Z,20.60
2018-03-20T01:37:18.806Z,20.60
2018-03-20T01:39:47.978Z,20.50
2018-03-20T01:42:17.186Z,20.50
2018-03-20T01:44:46.515Z,20.60
2018-03-20T01:47:15.571Z,20.60
2018-03-20T01:49:45.599Z,20.50
2018-03-20T01:52:14.798Z,20.50
2018-03-20T01:54:43.791Z,20.50
2018-03-20T01:57:13.023Z,20.50
2018-03-20T01:59:42.019Z,20.50
2018-03-20T02:02:13.746Z,20.40
2018-03-20T02:04:42.842Z,20.30
2018-03-20T02:07:11.838Z,20.40
2018-03-20T02:09:41.811Z,20.30
2018-03-20T02:12:11.598Z,20.40
2018-03-20T02:14:40.664Z,20.30
2018-03-20T02:17:09.527Z,20.40
2018-03-20T02:19:40.222Z,20.30
2018-03-20T02:22:09.507Z,20.30
2018-03-20T02:24:38.575Z,20.40
2018-03-20T02:27:07.695Z,20.40
2018-03-20T02:29:37.523Z,20.30
2018-03-20T02:32:06.622Z,20.30
2018-03-20T02:34:35.794Z,20.30
2018-03-20T02:37:05.095Z,20.40
2018-03-20T02:39:34.327Z,20.40
2018-03-20T02:42:03.323Z,20.40
2018-03-20T02:44:32.555Z,20.40
2018-03-20T02:47:01.883Z,20.40
2018-03-20T02:49:31.192Z,20.30
2018-03-20T02:52:00.291Z,20.40
2018-03-20T02:54:31.588Z,20.40
2018-03-20T02:57:00.636Z,20.50
2018-03-20T02:59:29.666Z,20.50
2018-03-20T03:01:58.791Z,20.50
2018-03-20T03:04:28.639Z,20.80
2018-03-20T03:06:57.947Z,20.80
2018-03-20T03:09:27.039Z,20.80
2018-03-20T03:11:56.040Z,20.90
2018-03-20T03:14:25.267Z,21.00
2018-03-20T03:16:54.263Z,21.00
2018-03-20T03:19:23.251Z,21.10
2018-03-20T03:21:52.394Z,21.20
2018-03-20T03:24:22.367Z,21.50
2018-03-20T03:26:52.218Z,21.70
2018-03-20T03:29:22.194Z,21.60
2018-03-20T03:31:52.072Z,21.90
2018-03-20T03:34:21.447Z,21.80
2018-03-20T03:36:50.582Z,22.10
2018-03-20T03:39:19.815Z,22.20
2018-03-20T03:41:49.482Z,22.40
2018-03-20T03:44:18.515Z,22.40
2018-03-20T03:46:47.415Z,22.50
2018-03-20T03:49:16.588Z,22.70
2018-03-20T03:51:45.563Z,22.80
2018-03-20T03:54:14.508Z,23.00
2018-03-20T03:56:43.735Z,23.20
2018-03-20T03:59:12.648Z,23.20
2018-03-20T04:01:42.579Z,24.10
2018-03-20T04:04:11.807Z,24.00
2018-03-20T04:06:40.803Z,24.80
2018-03-20T04:09:10.470Z,25.70
2018-03-20T04:11:39.548Z,25.70
2018-03-20T04:14:08.374Z,25.10
2018-03-20T04:16:37.535Z,25.00
2018-03-20T04:19:06.866Z,24.70
2018-03-20T04:21:36.687Z,24.90
2018-03-20T04:24:05.882Z,24.90
2018-03-20T04:26:34.888Z,25.00
2018-03-20T04:29:04.856Z,25.20
2018-03-20T04:31:34.750Z,25.50
2018-03-20T04:34:03.643Z,25.50
2018-03-20T04:36:32.906Z,25.70
2018-03-20T04:39:01.940Z,25.80
2018-03-20T04:41:30.936Z,25.80
2018-03-20T04:44:00.060Z,25.90
2018-03-20T04:46:30.009Z,26.70
2018-03-20T04:48:59.031Z,26.70
2018-03-20T04:51:28.313Z,26.90
2018-03-20T04:53:58.182Z,27.50
2018-03-20T04:56:27.318Z,27.50
2018-03-20T04:58:56.514Z,28.10
2018-03-20T05:01:25.624Z,28.70
2018-03-20T05:03:55.431Z,29.60
2018-03-20T05:06:24.407Z,29.60
2018-03-20T05:08:53.554Z,30.10
2018-03-20T05:11:22.442Z,30.30
2018-03-20T05:13:51.548Z,30.20
2018-03-20T05:16:21.636Z,31.60
2018-03-20T05:18:55.383Z,31.60
2018-03-20T05:21:29.818Z,32.90
2018-03-20T05:23:59.291Z,33.80
2018-03-20T05:26:28.570Z,34.20
2018-03-20T05:28:58.714Z,34.20
2018-03-20T05:31:28.095Z,34.10
2018-03-20T05:33:57.190Z,33.30
2018-03-20T05:36:26.483Z,32.80
2018-03-20T05:38:55.519Z,32.90
2018-03-20T05:41:24.703Z,32.90
2018-03-20T05:43:54.423Z,31.90
2018-03-20T05:46:28.986Z,31.90
2018-03-20T05:48:59.048Z,31.70
2018-03-20T05:51:28.483Z,31.60
2018-03-20T05:53:58.567Z,30.10
2018-03-20T05:56:27.598Z,30.10
2018-03-20T05:58:56.594Z,30.60
2018-03-20T06:01:25.689Z,30.90
2018-03-20T06:03:54.814Z,31.80
2018-03-20T06:06:24.697Z,32.30
2018-03-20T06:08:53.797Z,32.30
2018-03-20T06:11:23.168Z,33.10
2018-03-20T06:13:53.144Z,32.00
2018-03-20T06:16:22.278Z,32.10
2018-03-20T06:18:51.687Z,33.10
2018-03-20T06:21:20.887Z,33.40
2018-03-20T06:23:49.897Z,32.80
2018-03-20T06:26:18.982Z,32.70
2018-03-20T06:28:48.107Z,32.60
2018-03-20T06:31:17.067Z,32.30
2018-03-20T06:33:47.044Z,31.40
2018-03-20T06:36:16.416Z,31.30
2018-03-20T06:38:46.096Z,30.70
2018-03-20T06:41:15.027Z,30.70
2018-03-20T06:43:43.997Z,30.70
2018-03-20T06:46:13.219Z,30.70
2018-03-20T06:48:42.207Z,30.60
2018-03-20T06:51:11.343Z,30.60
2018-03-20T06:53:40.261Z,30.10
2018-03-20T06:56:09.195Z,29.80
2018-03-20T06:58:38.228Z,29.80
2018-03-20T07:01:08.076Z,29.70
2018-03-20T07:03:37.275Z,29.70
2018-03-20T07:06:06.274Z,30.00
2018-03-20T07:08:36.446Z,30.40
2018-03-20T07:11:05.688Z,30.40
2018-03-20T07:13:34.915Z,30.30
2018-03-20T07:16:04.016Z,30.60
2018-03-20T07:18:33.087Z,30.30
2018-03-20T07:21:02.421Z,30.10
2018-03-20T07:23:31.434Z,30.30
2018-03-20T07:26:00.545Z,30.50
2018-03-20T07:28:30.627Z,30.50
2018-03-20T07:30:59.695Z,30.50
2018-03-20T07:33:28.694Z,31.10
2018-03-20T07:35:57.787Z,31.70
2018-03-20T07:38:27.115Z,32.30
2018-03-20T07:40:56.016Z,33.70
2018-03-20T07:43:25.083Z,35.20
2018-03-20T07:45:54.105Z,35.50
2018-03-20T07:48:23.102Z,37.20
2018-03-20T07:50:52.063Z,36.30
2018-03-20T07:53:21.055Z,35.20
2018-03-20T07:55:50.120Z,33.80
2018-03-20T07:58:19.151Z,33.00
2018-03-20T08:00:48.288Z,32.40
2018-03-20T08:03:17.271Z,31.80
2018-03-20T08:05:46.166Z,31.50
2018-03-20T08:08:15.403Z,31.10
2018-03-20T08:10:44.359Z,31.40
2018-03-20T08:13:13.397Z,31.80
2018-03-20T08:15:42.583Z,30.90
2018-03-20T08:18:12.563Z,30.40
2018-03-20T08:20:42.715Z,30.40
2018-03-20T08:23:11.988Z,30.40
2018-03-20T08:25:41.082Z,30.20
2018-03-20T08:28:10.261Z,30.50
2018-03-20T08:30:39.356Z,30.30
2018-03-20T08:33:08.555Z,30.10
2018-03-20T08:35:37.579Z,30.20
2018-03-20T08:38:06.780Z,30.00
2018-03-20T08:40:35.774Z,29.80
2018-03-20T08:43:04.802Z,29.60
2018-03-20T08:45:34.679Z,29.30
2018-03-20T08:48:03.837Z,29.30
2018-03-20T08:50:33.164Z,29.40
2018-03-20T08:53:02.259Z,29.40
2018-03-20T08:55:31.479Z,29.30
2018-03-20T08:58:00.379Z,29.30
2018-03-20T09:00:29.353Z,29.30
2018-03-20T09:02:59.212Z,29.30
2018-03-20T09:05:28.347Z,29.30
2018-03-20T09:07:57.472Z,29.20
2018-03-20T09:10:26.467Z,29.20
2018-03-20T09:12:55.563Z,29.30
2018-03-20T09:15:24.839Z,29.00
2018-03-20T09:17:54.088Z,29.00
2018-03-20T09:20:24.264Z,29.10
2018-03-20T09:22:55.410Z,29.10
2018-03-20T09:25:24.374Z,29.10
2018-03-20T09:27:53.279Z,29.00
2018-03-20T09:30:23.312Z,29.00
2018-03-20T09:32:52.331Z,29.00
2018-03-20T09:35:21.326Z,28.90
2018-03-20T09:37:50.502Z,28.90
2018-03-20T09:40:19.594Z,28.90
2018-03-20T09:42:48.595Z,28.80
2018-03-20T09:45:17.963Z,29.00
2018-03-20T09:47:46.920Z,29.00
2018-03-20T09:50:15.811Z,29.00
2018-03-20T09:52:45.008Z,29.50
2018-03-20T09:55:14.007Z,30.00
2018-03-20T09:57:43.141Z,30.40
2018-03-20T10:00:13.201Z,30.40
2018-03-20T10:02:43.308Z,30.30
2018-03-20T10:05:12.402Z,30.20
2018-03-20T10:07:42.189Z,30.20
2018-03-20T10:10:11.109Z,30.20
2018-03-20T10:12:40.403Z,30.00
2018-03-20T10:15:09.775Z,30.00
2018-03-20T10:17:39.599Z,30.10
2018-03-20T10:20:08.552Z,30.10
2018-03-20T10:22:37.711Z,30.00
2018-03-20T10:25:06.783Z,30.10
2018-03-20T10:27:36.559Z,30.10
2018-03-20T10:30:05.555Z,30.00
2018-03-20T10:32:34.859Z,30.10
2018-03-20T10:35:04.866Z,29.90
2018-03-20T10:37:34.135Z,29.90
2018-03-20T10:40:03.511Z,29.80
2018-03-20T10:42:33.200Z,30.10
2018-03-20T10:45:02.326Z,30.10
2018-03-20T10:47:32.275Z,29.90
2018-03-20T10:50:02.191Z,29.90
2018-03-20T10:52:31.687Z,29.80
2018-03-20T10:55:00.856Z,29.80
2018-03-20T10:57:30.774Z,29.70
2018-03-20T10:59:59.807Z,29.70
2018-03-20T11:02:31.862Z,29.80
2018-03-20T11:05:00.975Z,29.90
2018-03-20T11:07:29.948Z,29.80
2018-03-20T11:09:58.792Z,29.50
2018-03-20T11:12:29.358Z,29.50
2018-03-20T11:14:58.328Z,29.50
2018-03-20T11:17:27.387Z,29.50
2018-03-20T11:19:56.511Z,29.40
2018-03-20T11:22:25.507Z,29.50
2018-03-20T11:24:57.522Z,29.40
2018-03-20T11:27:26.772Z,29.60
2018-03-20T11:29:55.805Z,29.50
2018-03-20T11:32:26.063Z,29.20
2018-03-20T11:34:56.035Z,29.10
2018-03-20T11:37:25.930Z,29.10
2018-03-20T11:39:55.551Z,29.10
2018-03-20T11:42:24.659Z,29.30
2018-03-20T11:44:53.895Z,29.10
2018-03-20T11:47:23.204Z,29.00
2018-03-20T11:49:52.319Z,29.00
2018-03-20T11:52:21.601Z,29.10
2018-03-20T11:54:50.695Z,29.00
2018-03-20T11:57:19.622Z,28.80
2018-03-20T11:59:48.483Z,29.00
2018-03-20T12:02:17.783Z,29.10
2018-03-20T12:04:46.905Z,29.30
2018-03-20T12:07:15.911Z,29.20
2018-03-20T12:09:49.982Z,29.10
2018-03-20T12:12:18.822Z,29.10
2018-03-20T12:14:47.939Z,29.20
2018-03-20T12:17:18.011Z,28.70
2018-03-20T12:19:47.124Z,28.60
2018-03-20T12:22:16.326Z,28.50
2018-03-20T12:24:45.423Z,28.40
2018-03-20T12:27:14.523Z,28.50
2018-03-20T12:29:43.658Z,28.50
2018-03-20T12:32:12.723Z,28.20
2018-03-20T12:34:41.771Z,28.30
2018-03-20T12:37:10.651Z,28.30
2018-03-20T12:39:39.763Z,28.50
2018-03-20T12:42:09.127Z,28.50
2018-03-20T12:44:38.469Z,28.50
2018-03-20T12:47:07.596Z,28.50
2018-03-20T12:49:36.971Z,28.40
2018-03-20T12:52:06.003Z,28.50
2018-03-20T12:54:35.026Z,28.50
2018-03-20T12:57:05.007Z,28.40
2018-03-20T12:59:34.184Z,28.40
2018-03-20T13:02:03.276Z,28.30
2018-03-20T13:04:33.285Z,28.10
2018-03-20T13:07:02.623Z,28.10
2018-03-20T13:09:32.289Z,28.10
2018-03-20T13:12:02.251Z,28.20
2018-03-20T13:14:31.422Z,28.20
2018-03-20T13:17:00.561Z,28.10
2018-03-20T13:19:29.647Z,28.10
2018-03-20T13:21:58.746Z,28.00
2018-03-20T13:24:27.838Z,28.00
2018-03-20T13:26:57.854Z,27.90
2018-03-20T13:29:26.968Z,27.90
2018-03-20T13:31:56.028Z,27.70
2018-03-20T13:34:26.792Z,27.70
2018-03-20T13:36:55.687Z,27.80
2018-03-20T13:39:24.750Z,27.70
2018-03-20T13:41:53.978Z,27.50
2018-03-20T13:44:23.112Z,27.40
2018-03-20T13:46:52.987Z,27.40
2018-03-20T13:49:22.263Z,27.40
2018-03-20T13:51:51.259Z,27.50
2018-03-20T13:54:21.231Z,27.20
2018-03-20T13:56:51.119Z,27.30
2018-03-20T13:59:20.114Z,27.20
2018-03-20T14:01:49.242Z,27.20
2018-03-20T14:04:18.203Z,27.20
2018-03-20T14:06:47.367Z,27.20
2018-03-20T14:09:16.356Z,27.10
2018-03-20T14:11:45.258Z,27.00
2018-03-20T14:14:14.518Z,26.80
2018-03-20T14:16:44.299Z,26.70
2018-03-20T14:19:13.966Z,26.80
2018-03-20T14:21:43.207Z,26.80
2018-03-20T14:24:12.302Z,26.70
2018-03-20T14:26:41.883Z,26.70
2018-03-20T14:29:10.764Z,26.70
2018-03-20T14:31:40.698Z,26.60
2018-03-20T14:34:09.937Z,26.60
2018-03-20T14:36:39.303Z,26.50
2018-03-20T14:39:08.629Z,26.60
2018-03-20T14:41:37.828Z,26.50
2018-03-20T14:44:06.895Z,26.40
2018-03-20T14:46:36.095Z,26.30
2018-03-20T14:49:05.843Z,26.30
2018-03-20T14:51:34.834Z,26.20
2018-03-20T14:54:13.073Z,26.20
2018-03-20T14:56:51.488Z,26.20
2018-03-20T14:59:22.117Z,26.10
2018-03-20T15:01:51.984Z,26.10
2018-03-20T15:04:21.178Z,26.10
2018-03-20T15:06:50.199Z,26.30
2018-03-20T15:09:19.295Z,26.40
2018-03-20T15:11:49.083Z,26.40
2018-03-20T15:14:17.955Z,26.40
2018-03-20T15:16:46.846Z,26.40
2018-03-20T15:19:16.778Z,26.40
2018-03-20T15:21:45.779Z,26.40
2018-03-20T15:24:14.774Z,26.30
2018-03-20T15:26:44.009Z,26.30
2018-03-20T15:29:13.004Z,26.30
2018-03-20T15:31:41.999Z,26.20
2018-03-20T15:34:11.124Z,26.30
2018-03-20T15:36:40.215Z,26.20
2018-03-20T15:39:09.387Z,26.20
2018-03-20T15:41:38.919Z,26.20
2018-03-20T15:44:08.120Z,26.20
2018-03-20T15:46:37.491Z,26.10
2018-03-20T15:49:06.564Z,26.10
2018-03-20T15:51:35.616Z,26.00
2018-03-20T15:54:04.962Z,26.10
2018-03-20T15:56:34.036Z,26.00
2018-03-20T15:59:03.877Z,26.00
2018-03-20T16:01:33.759Z,26.00
2018-03-20T16:04:03.595Z,26.00
2018-03-20T16:06:32.695Z,25.90
2018-03-20T16:09:01.899Z,25.90
2018-03-20T16:11:31.199Z,25.90
2018-03-20T16:14:00.134Z,25.90
2018-03-20T16:16:30.374Z,26.00
2018-03-20T16:18:59.632Z,25.90
2018-03-20T16:21:34.697Z,25.90
2018-03-20T16:24:08.603Z,25.90
2018-03-20T16:26:37.764Z,26.00
2018-03-20T16:29:06.960Z,25.90
2018-03-20T16:31:35.985Z,25.80
2018-03-20T16:34:05.576Z,25.80
2018-03-20T16:36:38.396Z,25.90
2018-03-20T16:39:08.327Z,25.80
2018-03-20T16:41:37.295Z,25.80
2018-03-20T16:44:06.420Z,25.80
2018-03-20T16:46:35.521Z,25.80
2018-03-20T16:49:05.168Z,25.70
2018-03-20T16:51:34.944Z,25.70
2018-03-20T16:54:04.550Z,25.70
2018-03-20T16:56:33.639Z,25.70
2018-03-20T16:59:02.774Z,25.70
2018-03-20T17:01:31.772Z,25.60
2018-03-20T17:04:01.003Z,25.60
2018-03-20T17:06:29.997Z,25.60
2018-03-20T17:08:59.095Z,25.70
2018-03-20T17:11:28.959Z,25.60
2018-03-20T17:13:59.278Z,25.60
2018-03-20T17:16:28.988Z,25.60
2018-03-20T17:18:58.257Z,25.60
2018-03-20T17:21:27.465Z,25.60
2018-03-20T17:23:56.878Z,25.60
2018-03-20T17:26:26.015Z,25.60
2018-03-20T17:28:55.123Z,25.50
2018-03-20T17:31:24.317Z,25.50
2018-03-20T17:33:53.725Z,25.50
2018-03-20T17:36:22.715Z,25.50
2018-03-20T17:38:51.736Z,25.50
2018-03-20T17:41:21.050Z,25.40
2018-03-20T17:43:50.211Z,25.40
2018-03-20T17:46:19.445Z,25.40
2018-03-20T17:48:48.445Z,25.40
2018-03-20T17:51:17.603Z,25.40
2018-03-20T17:53:46.767Z,25.50
2018-03-20T17:56:15.831Z,25.50
2018-03-20T17:58:44.823Z,25.50
2018-03-20T18:01:13.880Z,25.40
2018-03-20T18:03:42.947Z,25.40
2018-03-20T18:06:11.983Z,25.40
2018-03-20T18:08:40.974Z,25.40
2018-03-20T18:11:10.108Z,25.40
2018-03-20T18:13:39.103Z,25.30
2018-03-20T18:16:08.900Z,25.20
2018-03-20T18:18:38.863Z,25.30
2018-03-20T18:21:07.791Z,25.20
2018-03-20T18:23:36.819Z,25.10
2018-03-20T18:26:06.131Z,25.20
2018-03-20T18:28:35.373Z,25.20
2018-03-20T18:31:04.545Z,25.20
2018-03-20T18:33:33.683Z,25.10
2018-03-20T18:36:03.562Z,25.10
2018-03-20T18:38:32.532Z,25.00
2018-03-20T18:41:01.522Z,25.00
2018-03-20T18:43:30.650Z,25.00
2018-03-20T18:45:59.854Z,25.10
2018-03-20T18:48:29.697Z,25.00
2018-03-20T18:50:58.795Z,25.00
2018-03-20T18:53:28.023Z,25.00
2018-03-20T18:55:57.014Z,25.00
2018-03-20T18:58:26.291Z,25.00
2018-03-20T19:00:55.287Z,25.00
2018-03-20T19:03:24.279Z,25.00
2018-03-20T19:05:53.483Z,24.90
2018-03-20T19:08:22.503Z,25.00
2018-03-20T19:10:51.983Z,24.90
2018-03-20T19:13:20.979Z,24.90
2018-03-20T19:15:50.075Z,24.80
2018-03-20T19:18:19.314Z,24.80
2018-03-20T19:20:48.303Z,24.80
2018-03-20T19:23:17.434Z,24.80
2018-03-20T19:25:47.338Z,24.80
2018-03-20T19:28:16.615Z,24.80
2018-03-20T19:30:45.679Z,24.80
2018-03-20T19:33:14.879Z,24.80
2018-03-20T19:35:44.012Z,24.80
2018-03-20T19:38:12.970Z,24.70
2018-03-20T19:40:41.999Z,24.70
2018-03-20T19:43:12.631Z,24.80
2018-03-20T19:45:41.523Z,24.70
2018-03-20T19:48:10.589Z,24.70
2018-03-20T19:50:39.716Z,24.80
2018-03-20T19:53:10.624Z,24.70
2018-03-20T19:55:39.619Z,24.60
2018-03-20T19:58:09.079Z,24.50
2018-03-20T20:00:38.219Z,24.40
2018-03-20T20:03:07.535Z,24.30
2018-03-20T20:05:37.335Z,24.20
2018-03-20T20:08:06.331Z,24.20
2018-03-20T20:10:35.257Z,24.20
2018-03-20T20:13:04.486Z,24.10
2018-03-20T20:15:33.404Z,24.00
2018-03-20T20:18:03.359Z,24.00
2018-03-20T20:20:32.437Z,24.00
2018-03-20T20:23:01.732Z,23.90
2018-03-20T20:25:30.739Z,23.90
2018-03-20T20:27:59.893Z,23.90
2018-03-20T20:30:28.751Z,23.90
2018-03-20T20:32:57.812Z,23.90
2018-03-20T20:35:27.831Z,24.00
2018-03-20T20:37:56.924Z,23.90
2018-03-20T20:40:26.126Z,23.90
2018-03-20T20:42:55.123Z,23.90
2018-03-20T20:45:24.839Z,23.80
2018-03-20T20:47:53.703Z,23.80
2018-03-20T20:50:22.414Z,23.70
2018-03-20T20:52:51.611Z,23.70
2018-03-20T20:55:21.587Z,23.70
2018-03-20T20:57:50.723Z,23.60
2018-03-20T21:00:19.955Z,23.50
2018-03-20T21:02:49.254Z,23.50
2018-03-20T21:05:18.427Z,23.60
2018-03-20T21:07:47.430Z,23.60
2018-03-20T21:10:16.455Z,23.50
2018-03-20T21:12:45.680Z,23.50
2018-03-20T21:15:14.655Z,23.40
2018-03-20T21:17:43.640Z,23.50
2018-03-20T21:20:12.843Z,23.50
2018-03-20T21:22:41.836Z,23.50
2018-03-20T21:25:11.064Z,23.50
2018-03-20T21:27:39.971Z,23.40
2018-03-20T21:30:08.923Z,23.40
2018-03-20T21:32:38.048Z,23.40
2018-03-20T21:35:06.907Z,23.40
2018-03-20T21:37:35.799Z,23.50
2018-03-20T21:40:05.031Z,23.40
2018-03-20T21:42:34.099Z,23.40
2018-03-20T21:45:03.831Z,23.40
2018-03-20T21:47:33.586Z,23.50
2018-03-20T21:50:02.687Z,23.40
2018-03-20T21:52:31.482Z,23.50
2018-03-20T21:55:00.575Z,23.40
2018-03-20T21:57:29.479Z,23.40
2018-03-20T21:59:58.378Z,23.30
2018-03-20T22:02:27.455Z,23.30
2018-03-20T22:04:56.470Z,23.30
2018-03-20T22:07:26.263Z,23.20
2018-03-20T22:09:55.088Z,23.20
2018-03-20T22:12:23.948Z,23.20
2018-03-20T22:14:52.835Z,23.20
2018-03-20T22:17:21.651Z,23.20
2018-03-20T22:19:51.163Z,23.20
2018-03-20T22:22:20.775Z,23.20
2018-03-20T22:24:50.457Z,23.20
2018-03-20T22:27:19.343Z,23.20
2018-03-20T22:29:48.550Z,23.20
2018-03-20T22:32:17.534Z,23.20
2018-03-20T22:34:46.538Z,23.10
2018-03-20T22:37:15.612Z,23.00
2018-03-20T22:39:44.759Z,23.00
2018-03-20T22:42:14.635Z,22.90
2018-03-20T22:44:44.387Z,22.90
2018-03-20T22:47:14.127Z,22.90
2018-03-20T22:49:43.948Z,22.80
2018-03-20T22:52:12.871Z,22.80
2018-03-20T22:54:41.894Z,22.80
2018-03-20T22:57:11.562Z,22.70
2018-03-20T22:59:40.531Z,22.70
2018-03-20T23:02:10.286Z,22.60
2018-03-20T23:04:39.408Z,22.60
2018-03-20T23:07:08.484Z,22.60
2018-03-20T23:09:37.396Z,22.60
2018-03-20T23:12:06.495Z,22.50
2018-03-20T23:14:36.161Z,22.40
2018-03-20T23:17:04.904Z,22.40
2018-03-20T23:19:34.560Z,22.50
2018-03-20T23:22:03.731Z,22.40
2018-03-20T23:24:32.879Z,22.50
2018-03-20T23:27:02.000Z,22.50
2018-03-20T23:29:31.071Z,22.40
2018-03-20T23:31:59.987Z,22.30
2018-03-20T23:34:29.734Z,22.20
2018-03-20T23:36:58.491Z,22.20
2018-03-20T23:39:27.559Z,22.20
2018-03-20T23:41:56.375Z,22.10
2018-03-20T23:44:25.267Z,22.10
2018-03-20T23:46:54.543Z,22.10
2018-03-20T23:49:23.587Z,22.00
2018-03-20T23:51:52.617Z,22.00
2018-03-20T23:54:22.711Z,22.00
2018-03-20T23:56:52.501Z,22.00
2018-03-20T23:59:22.341Z,22.10
